createdAt,value
2022-09-26T00:00:01.838Z,21
2022-09-26T00:05:02.299Z,12
2022-09-26T00:10:01.808Z,10
2022-09-26T00:15:02.172Z,12
2022-09-26T00:20:01.586Z,16
2022-09-26T00:25:01.964Z,15
2022-09-26T00:30:01.435Z,10
2022-09-26T00:35:01.920Z,10
2022-09-26T00:40:01.294Z,18
2022-09-26T00:45:01.825Z,19
2022-09-26T00:50:02.185Z,21
2022-09-26T00:55:01.532Z,14
2022-09-26T01:00:01.888Z,19
2022-09-26T01:05:02.220Z,19
2022-09-26T01:10:01.729Z,23
2022-09-26T01:15:02.090Z,28
2022-09-26T01:20:01.532Z,20
2022-09-26T01:25:02.011Z,21
2022-09-26T01:30:01.504Z,27
2022-09-26T01:35:02.031Z,32
2022-09-26T01:40:01.408Z,36
2022-09-26T01:45:01.755Z,31
2022-09-26T01:50:02.215Z,28
2022-09-26T01:55:01.692Z,35
2022-09-26T02:00:02.183Z,40
2022-09-26T02:05:01.707Z,41
2022-09-26T02:10:02.214Z,44
2022-09-26T02:15:01.580Z,36
2022-09-26T02:20:02.131Z,42
2022-09-26T02:25:01.479Z,44
2022-09-26T02:30:01.958Z,50
2022-09-26T02:35:01.389Z,49
2022-09-26T02:40:01.794Z,45
2022-09-26T02:45:02.141Z,41
2022-09-26T02:50:01.602Z,44
2022-09-26T02:55:01.945Z,50
2022-09-26T03:00:02.304Z,52
2022-09-26T03:05:01.718Z,54
2022-09-26T03:10:02.136Z,47
2022-09-26T03:15:01.483Z,42
2022-09-26T03:20:01.890Z,48
2022-09-26T03:25:02.227Z,53
2022-09-26T03:30:01.587Z,54
2022-09-26T03:35:01.923Z,57
2022-09-26T03:40:01.431Z,48
2022-09-26T03:45:01.977Z,44
2022-09-26T03:50:01.444Z,50
2022-09-26T03:55:01.792Z,59
2022-09-26T04:00:02.280Z,66
2022-09-26T04:05:01.619Z,71
2022-09-26T04:10:02.123Z,70
2022-09-26T04:15:01.596Z,69
2022-09-26T04:20:02.142Z,64
2022-09-26T04:25:01.623Z,67
2022-09-26T04:30:01.602Z,89
2022-09-26T04:35:01.979Z,100
2022-09-26T04:40:01.512Z,99
2022-09-26T04:45:01.861Z,96
2022-09-26T04:50:02.223Z,99
2022-09-26T04:55:01.738Z,87
2022-09-26T05:00:02.229Z,83
2022-09-26T05:05:01.705Z,106
2022-09-26T05:10:02.220Z,107
2022-09-26T05:15:01.719Z,127
2022-09-26T05:20:02.167Z,128
2022-09-26T05:25:01.513Z,99
2022-09-26T05:30:01.861Z,116
2022-09-26T05:35:02.198Z,129
2022-09-26T05:40:01.607Z,143
2022-09-26T05:45:02.123Z,136
2022-09-26T05:50:01.590Z,130
2022-09-26T05:55:02.060Z,169
2022-09-26T06:00:01.440Z,158
2022-09-26T06:05:01.796Z,133
2022-09-26T06:10:02.236Z,183
2022-09-26T06:15:01.731Z,215
2022-09-26T06:20:02.352Z,180
2022-09-26T06:25:01.736Z,233
2022-09-26T06:30:02.147Z,233
2022-09-26T06:35:01.500Z,207
2022-09-26T06:40:01.870Z,174
2022-09-26T06:45:02.341Z,186
2022-09-26T06:50:01.801Z,191
2022-09-26T06:55:02.291Z,150
2022-09-26T07:00:01.810Z,198
2022-09-26T07:05:02.170Z,223
2022-09-26T07:10:01.676Z,229
2022-09-26T07:15:02.223Z,152
2022-09-26T07:20:01.775Z,229
2022-09-26T07:25:02.244Z,204
2022-09-26T07:30:01.624Z,207
2022-09-26T07:35:01.966Z,205
2022-09-26T07:40:01.994Z,227
2022-09-26T07:45:24.274Z,216
2022-09-26T07:50:02.034Z,263
2022-09-26T07:55:01.508Z,83
2022-09-26T08:00:01.895Z,74
2022-09-26T08:05:02.378Z,67
2022-09-26T08:10:01.774Z,38
2022-09-26T08:15:02.131Z,32
2022-09-26T08:20:01.582Z,35
2022-09-26T08:25:01.923Z,35
2022-09-26T08:30:02.270Z,32
2022-09-26T08:35:01.608Z,36
2022-09-26T08:40:02.005Z,29
2022-09-26T08:45:01.379Z,34
2022-09-26T08:50:01.843Z,20
2022-09-26T08:55:02.313Z,16
2022-09-26T09:00:01.796Z,17
2022-09-26T09:05:02.269Z,10
2022-09-26T09:10:01.666Z,5
2022-09-26T09:15:23.940Z,7
2022-09-26T09:20:02.026Z,21
2022-09-26T09:25:01.528Z,15
2022-09-26T09:30:03.207Z,29
2022-09-26T09:35:01.847Z,9
2022-09-26T09:40:02.357Z,10
2022-09-26T09:45:01.840Z,10
2022-09-26T09:50:02.305Z,9
2022-09-26T09:55:01.778Z,4
2022-09-26T10:00:02.445Z,8
2022-09-26T10:05:02.037Z,27
2022-09-26T10:10:01.543Z,8
2022-09-26T10:15:01.908Z,15
2022-09-26T10:20:01.693Z,8
2022-09-26T10:25:02.040Z,8
2022-09-26T10:30:01.427Z,8
2022-09-26T10:35:01.764Z,9
2022-09-26T10:40:02.316Z,5
2022-09-26T10:45:01.796Z,10
2022-09-26T10:50:02.214Z,11
2022-09-26T10:55:01.580Z,7
2022-09-26T11:00:02.072Z,9
2022-09-26T11:05:01.424Z,10
2022-09-26T11:10:01.822Z,18
2022-09-26T11:15:02.176Z,22
2022-09-26T11:20:01.729Z,21
2022-09-26T11:25:02.109Z,22
2022-09-26T11:30:01.606Z,24
2022-09-26T11:35:02.082Z,15
2022-09-26T11:40:03.826Z,13
2022-09-26T11:45:01.806Z,13
2022-09-26T11:50:02.272Z,18
2022-09-26T11:55:01.779Z,26
2022-09-26T12:00:02.169Z,25
2022-09-26T12:05:01.525Z,36
2022-09-26T12:10:01.914Z,42
2022-09-26T12:15:02.332Z,44
2022-09-26T12:20:01.949Z,49
2022-09-26T12:25:02.417Z,38
2022-09-26T12:30:01.899Z,46
2022-09-26T12:35:02.377Z,39
2022-09-26T12:40:01.773Z,52
2022-09-26T12:45:02.272Z,46
2022-09-26T12:50:01.794Z,27
2022-09-26T12:55:02.137Z,22
2022-09-26T13:00:01.620Z,22
2022-09-26T13:05:01.981Z,14
2022-09-26T13:10:01.386Z,35
2022-09-26T13:15:01.892Z,16
2022-09-26T13:20:01.375Z,35
2022-09-26T13:25:01.852Z,13
2022-09-26T13:30:02.337Z,13
2022-09-26T13:35:01.714Z,19
2022-09-26T13:40:02.258Z,11
2022-09-26T13:45:01.617Z,11
2022-09-26T13:50:02.079Z,16
2022-09-26T13:55:01.554Z,9
2022-09-26T14:00:01.960Z,20
2022-09-26T14:05:01.350Z,20
2022-09-26T14:10:01.848Z,28
2022-09-26T14:15:02.224Z,12
2022-09-26T14:20:01.671Z,23
2022-09-26T14:25:02.152Z,19
2022-09-26T14:30:01.635Z,28
2022-09-26T14:35:02.002Z,16
2022-09-26T14:40:01.532Z,13
2022-09-26T14:45:02.007Z,14
2022-09-26T14:50:01.474Z,37
2022-09-26T14:55:01.807Z,18
2022-09-26T15:00:02.301Z,15
2022-09-26T15:05:01.786Z,17
2022-09-26T15:10:02.156Z,16
2022-09-26T15:15:04.970Z,23
2022-09-26T15:20:01.847Z,20
2022-09-26T15:25:02.198Z,11
2022-09-26T15:30:01.582Z,11
2022-09-26T15:35:01.946Z,16
2022-09-26T15:40:01.453Z,17
2022-09-26T15:45:01.948Z,19
2022-09-26T15:50:01.304Z,28
2022-09-26T15:55:01.953Z,34
2022-09-26T16:00:01.642Z,26
2022-09-26T16:05:02.028Z,20
2022-09-26T16:10:01.641Z,27
2022-09-26T16:15:02.202Z,31
2022-09-26T16:20:01.648Z,32
2022-09-26T16:25:01.987Z,35
2022-09-26T16:30:05.543Z,39
2022-09-26T16:35:02.217Z,50
2022-09-26T16:40:01.734Z,69
2022-09-26T16:45:02.085Z,80
2022-09-26T16:50:01.429Z,131
2022-09-26T16:55:01.780Z,308
2022-09-26T17:00:02.270Z,265
2022-09-26T17:05:01.752Z,61
2022-09-26T17:10:02.276Z,35
2022-09-26T17:15:01.636Z,12
2022-09-26T17:20:02.079Z,12
2022-09-26T17:25:01.440Z,54
2022-09-26T17:30:01.932Z,49
2022-09-26T17:35:02.295Z,16
2022-09-26T17:40:01.799Z,19
2022-09-26T17:45:02.283Z,13
2022-09-26T17:50:01.763Z,21
2022-09-26T17:55:02.109Z,22
2022-09-26T18:00:01.583Z,8
2022-09-26T18:05:02.056Z,12
2022-09-26T18:10:01.564Z,21
2022-09-26T18:15:02.040Z,18
2022-09-26T18:20:01.601Z,20
2022-09-26T18:25:02.071Z,16
2022-09-26T18:30:01.568Z,18
2022-09-26T18:35:02.038Z,20
2022-09-26T18:40:04.278Z,23
2022-09-26T18:45:02.160Z,12
2022-09-26T18:50:01.511Z,31
2022-09-26T18:55:01.984Z,46
2022-09-26T19:00:01.485Z,101
2022-09-26T19:05:01.860Z,46
2022-09-26T19:10:02.261Z,8
2022-09-26T19:15:01.617Z,16
2022-09-26T19:20:02.180Z,48
2022-09-26T19:25:01.698Z,11
2022-09-26T19:30:02.054Z,21
2022-09-26T19:35:01.519Z,44
2022-09-26T19:40:02.057Z,11
2022-09-26T19:45:01.476Z,12
2022-09-26T19:50:01.954Z,66
2022-09-26T19:55:01.512Z,31
2022-09-26T20:00:02.000Z,51
2022-09-26T20:05:01.490Z,7
2022-09-26T20:10:02.004Z,9
2022-09-26T20:15:01.481Z,20
2022-09-26T20:20:01.900Z,19
2022-09-26T20:25:02.381Z,110
2022-09-26T20:30:01.875Z,94
2022-09-26T20:35:02.347Z,91
2022-09-26T20:40:01.855Z,39
2022-09-26T20:45:02.337Z,29
2022-09-26T20:50:01.805Z,9
2022-09-26T20:55:02.293Z,7
2022-09-26T21:00:01.798Z,14
2022-09-26T21:05:02.307Z,6
2022-09-26T21:10:01.810Z,7
2022-09-26T21:15:02.328Z,9
2022-09-26T21:20:01.768Z,9
2022-09-26T21:25:02.141Z,9
2022-09-26T21:30:01.621Z,7
2022-09-26T21:35:02.135Z,8
2022-09-26T21:40:01.637Z,17
2022-09-26T21:45:02.123Z,31
2022-09-26T21:50:01.593Z,31
2022-09-26T21:55:02.059Z,44
2022-09-26T22:00:01.472Z,59
2022-09-26T22:05:02.290Z,88
2022-09-26T22:10:01.678Z,144
2022-09-26T22:15:02.182Z,198
2022-09-26T22:20:01.969Z,202
2022-09-26T22:25:01.310Z,186
2022-09-26T22:30:01.651Z,179
2022-09-26T22:35:01.991Z,164
2022-09-26T22:40:01.505Z,150
2022-09-26T22:45:02.026Z,160
2022-09-26T22:50:01.389Z,156
2022-09-26T22:55:01.871Z,147
2022-09-26T23:00:02.263Z,147
2022-09-26T23:05:01.739Z,166
2022-09-26T23:10:02.147Z,157
2022-09-26T23:15:01.517Z,158
2022-09-26T23:20:02.005Z,158
2022-09-26T23:25:01.353Z,166
2022-09-26T23:30:01.848Z,161
2022-09-26T23:35:02.222Z,164
2022-09-26T23:40:01.735Z,165
2022-09-26T23:45:02.090Z,164
2022-09-26T23:50:01.586Z,182
2022-09-26T23:55:01.935Z,193
